createdAt,value
2019-02-28T00:03:04.575Z,93981.20
2019-02-28T00:05:33.171Z,93984.13
2019-02-28T00:08:01.643Z,93977.41
2019-02-28T00:10:30.873Z,93974.45
2019-02-28T00:13:09.885Z,93971.09
2019-02-28T00:15:38.171Z,93976.16
2019-02-28T00:18:06.031Z,93973.62
2019-02-28T00:20:34.138Z,93969.41
2019-02-28T00:23:02.714Z,93975.72
2019-02-28T00:25:31.398Z,93972.31
2019-02-28T00:27:59.915Z,93974.42
2019-02-28T00:30:28.480Z,93980.77
2019-02-28T00:32:59.301Z,93976.12
2019-02-28T00:35:27.303Z,93965.19
2019-02-28T00:37:56.682Z,93958.02
2019-02-28T00:40:26.005Z,93953.80
2019-02-28T00:42:53.910Z,93956.33
2019-02-28T00:45:21.758Z,93954.23
2019-02-28T00:47:49.922Z,93951.72
2019-02-28T00:50:18.209Z,93954.64
2019-02-28T00:52:46.089Z,93945.36
2019-02-28T00:55:15.241Z,93948.32
2019-02-28T00:57:50.726Z,93944.51
2019-02-28T01:00:18.700Z,93940.70
2019-02-28T01:02:52.163Z,93936.08
2019-02-28T01:05:26.391Z,93928.48
2019-02-28T01:07:54.919Z,93927.19
2019-02-28T01:10:23.506Z,93921.30
2019-02-28T01:12:54.368Z,93924.66
2019-02-28T01:15:28.913Z,93925.05
2019-02-28T01:18:00.481Z,93921.27
2019-02-28T01:20:34.845Z,93915.37
2019-02-28T01:23:03.132Z,93917.03
2019-02-28T01:25:31.728Z,93909.48
2019-02-28T01:27:59.998Z,93912.85
2019-02-28T01:30:28.582Z,93902.36
2019-02-28T01:32:56.573Z,93903.61
2019-02-28T01:35:25.160Z,93902.34
2019-02-28T01:37:53.406Z,93895.20
2019-02-28T01:40:21.240Z,93891.39
2019-02-28T01:42:54.004Z,93896.84
2019-02-28T01:45:26.460Z,93892.20
2019-02-28T01:47:54.751Z,93889.66
2019-02-28T01:50:22.904Z,93890.94
2019-02-28T01:52:51.522Z,93885.44
2019-02-28T01:55:20.100Z,93886.27
2019-02-28T01:57:48.720Z,93874.91
2019-02-28T02:03:40.674Z,93864.77
2019-02-28T02:06:14.734Z,93865.59
2019-02-28T02:08:42.692Z,93862.22
2019-02-28T02:11:11.301Z,93853.83
2019-02-28T02:13:39.900Z,93859.28
2019-02-28T02:16:08.062Z,93855.09
2019-02-28T02:18:36.708Z,93850.07
2019-02-28T02:21:04.565Z,93849.63
2019-02-28T02:23:33.040Z,93847.92
2019-02-28T02:26:01.443Z,93840.78
2019-02-28T02:28:29.781Z,93845.40
2019-02-28T02:30:58.065Z,93835.72
2019-02-28T02:33:26.043Z,93836.98
2019-02-28T02:35:54.560Z,93831.10
2019-02-28T02:38:23.117Z,93841.59
2019-02-28T02:40:59.056Z,93830.66
2019-02-28T02:43:32.099Z,93831.95
2019-02-28T02:46:00.377Z,93826.48
2019-02-28T02:48:28.392Z,93823.54
2019-02-28T02:50:57.052Z,93815.97
2019-02-28T02:53:25.300Z,93815.98
2019-02-28T02:55:53.922Z,93817.23
2019-02-28T02:58:26.636Z,93815.12
2019-02-28T03:00:58.941Z,93815.12
2019-02-28T03:03:27.225Z,93812.59
2019-02-28T03:05:54.995Z,93811.33
2019-02-28T03:08:23.690Z,93801.23
2019-02-28T03:10:53.031Z,93807.55
2019-02-28T03:13:28.131Z,93802.09
2019-02-28T03:15:59.303Z,93805.89
2019-02-28T03:18:36.261Z,93798.33
2019-02-28T03:21:04.479Z,93799.58
2019-02-28T03:23:37.954Z,93801.70
2019-02-28T03:26:12.480Z,93793.72
2019-02-28T03:28:40.761Z,93786.11
2019-02-28T03:31:14.481Z,93792.00
2019-02-28T03:33:46.413Z,93789.48
2019-02-28T03:36:15.856Z,93787.00
2019-02-28T03:38:50.981Z,93781.08
2019-02-28T03:41:19.542Z,93781.50
2019-02-28T03:43:47.827Z,93773.93
2019-02-28T03:46:16.060Z,93778.55
2019-02-28T03:48:44.330Z,93776.44
2019-02-28T03:51:12.977Z,93777.27
2019-02-28T03:53:41.582Z,93777.27
2019-02-28T03:56:14.293Z,93778.52
2019-02-28T03:58:46.538Z,93771.36
2019-02-28T04:01:14.439Z,93771.34
2019-02-28T04:03:42.686Z,93763.77
2019-02-28T04:06:11.211Z,93767.13
2019-02-28T04:08:39.795Z,93767.97
2019-02-28T04:11:07.652Z,93770.06
2019-02-28T04:13:36.342Z,93774.27
2019-02-28T04:16:09.252Z,93765.42
2019-02-28T04:18:45.897Z,93769.20
2019-02-28T04:21:21.404Z,93765.41
2019-02-28T04:23:50.033Z,93764.98
2019-02-28T04:26:18.307Z,93759.52
2019-02-28T04:28:53.513Z,93758.23
2019-02-28T04:31:20.075Z,93759.09
2019-02-28T04:33:54.748Z,93762.85
2019-02-28T04:36:22.572Z,93765.36
2019-02-28T04:38:51.705Z,93758.24
2019-02-28T04:41:32.796Z,93762.85
2019-02-28T04:44:06.425Z,93764.52
2019-02-28T04:46:34.732Z,93764.50
2019-02-28T04:49:03.025Z,93760.28
2019-02-28T04:51:31.263Z,93757.34
2019-02-28T04:53:59.546Z,93757.78
2019-02-28T04:56:27.764Z,93755.63
2019-02-28T04:58:56.470Z,93760.28
2019-02-28T05:01:32.201Z,93758.14
2019-02-28T05:04:02.176Z,93759.80
2019-02-28T05:06:37.176Z,93752.64
2019-02-28T05:09:06.979Z,93758.52
2019-02-28T05:11:34.493Z,93751.80
2019-02-28T05:14:02.958Z,93755.14
2019-02-28T05:16:30.817Z,93755.59
2019-02-28T05:19:01.587Z,93759.39
2019-02-28T05:21:29.217Z,93754.78
2019-02-28T05:23:57.197Z,93749.33
2019-02-28T05:26:26.227Z,93745.98
2019-02-28T05:29:01.866Z,93744.70
2019-02-28T05:31:30.354Z,93739.66
2019-02-28T05:33:58.962Z,93748.45
2019-02-28T05:36:27.203Z,93745.55
2019-02-28T05:38:56.689Z,93742.18
2019-02-28T05:41:36.214Z,93744.69
2019-02-28T05:44:15.025Z,93750.99
2019-02-28T05:46:43.703Z,93753.97
2019-02-28T05:49:12.399Z,93751.87
2019-02-28T05:51:40.222Z,93753.17
2019-02-28T05:54:08.822Z,93743.52
2019-02-28T05:56:36.759Z,93753.22
2019-02-28T05:59:04.665Z,93764.15
2019-02-28T06:01:33.351Z,93759.14
2019-02-28T06:04:03.315Z,93761.71
2019-02-28T06:06:38.513Z,93753.31
2019-02-28T06:09:06.830Z,93757.09
2019-02-28T06:11:35.836Z,93742.38
2019-02-28T06:14:11.568Z,93741.66
2019-02-28T06:16:40.133Z,93731.72
2019-02-28T06:19:09.094Z,93732.42
2019-02-28T06:21:49.185Z,93726.14
2019-02-28T06:24:17.502Z,93734.77
2019-02-28T06:26:45.448Z,93739.02
2019-02-28T06:29:13.640Z,93728.23
2019-02-28T06:31:41.962Z,93738.74
2019-02-28T06:34:10.354Z,93738.53
2019-02-28T06:36:38.645Z,93739.30
2019-02-28T06:39:07.222Z,93743.45
2019-02-28T06:41:35.947Z,93743.02
2019-02-28T06:44:04.566Z,93750.21
2019-02-28T06:46:33.126Z,93749.96
2019-02-28T06:49:06.888Z,93760.03
2019-02-28T06:51:38.517Z,93762.64
2019-02-28T06:54:07.938Z,93768.57
2019-02-28T06:56:44.164Z,93765.45
2019-02-28T06:59:23.989Z,93768.55
2019-02-28T07:01:56.640Z,93777.45
2019-02-28T07:04:28.363Z,93776.52
2019-02-28T07:06:56.708Z,93772.44
2019-02-28T07:09:24.905Z,93772.60
2019-02-28T07:11:54.854Z,93772.41
2019-02-28T07:14:33.051Z,93771.66
2019-02-28T07:17:01.736Z,93774.52
2019-02-28T07:19:30.276Z,93766.00
2019-02-28T07:21:58.496Z,93761.75
2019-02-28T07:24:27.189Z,93767.27
2019-02-28T07:26:55.385Z,93768.27
2019-02-28T07:29:23.750Z,93770.39
2019-02-28T07:31:52.029Z,93767.86
2019-02-28T07:34:23.807Z,93771.43
2019-02-28T07:36:51.094Z,93780.07
2019-02-28T07:39:19.353Z,93767.92
2019-02-28T07:41:48.079Z,93770.77
2019-02-28T07:44:21.223Z,93773.13
2019-02-28T07:46:53.449Z,93783.08
2019-02-28T07:49:22.218Z,93784.74
2019-02-28T07:52:02.197Z,93784.34
2019-02-28T07:54:43.192Z,93771.34
2019-02-28T07:57:16.957Z,93768.36
2019-02-28T07:59:42.726Z,93776.90
2019-02-28T08:02:10.771Z,93765.91
2019-02-28T08:04:39.440Z,93756.48
2019-02-28T08:07:08.125Z,93760.61
2019-02-28T08:09:55.351Z,93766.63
2019-02-28T08:12:23.694Z,93758.80
2019-02-28T08:15:13.746Z,93762.33
2019-02-28T08:17:44.033Z,93762.01
2019-02-28T08:20:12.665Z,93761.30
2019-02-28T08:22:41.947Z,93752.44
2019-02-28T08:25:13.256Z,93760.11
2019-02-28T08:27:41.228Z,93763.17
2019-02-28T08:30:28.575Z,93761.33
2019-02-28T08:32:57.553Z,93761.91
2019-02-28T08:35:25.987Z,93758.72
2019-02-28T08:38:06.918Z,93756.98
2019-02-28T08:40:35.700Z,93752.63
2019-02-28T08:43:03.981Z,93762.20
2019-02-28T08:45:33.522Z,93748.69
2019-02-28T08:48:09.558Z,93743.42
2019-02-28T08:50:37.837Z,93744.58
2019-02-28T08:53:06.570Z,93748.69
2019-02-28T08:55:38.291Z,93758.60
2019-02-28T08:58:24.567Z,93756.48
2019-02-28T09:00:52.854Z,93753.41
2019-02-28T09:03:21.071Z,93748.64
2019-02-28T09:05:49.476Z,93758.80
2019-02-28T09:08:17.392Z,93743.88
2019-02-28T09:10:46.965Z,93741.02
2019-02-28T09:13:25.585Z,93745.91
2019-02-28T09:15:54.238Z,93756.31
2019-02-28T09:18:23.026Z,93743.77
2019-02-28T09:20:51.809Z,93751.08
2019-02-28T09:23:20.487Z,93748.39
2019-02-28T09:25:48.884Z,93766.55
2019-02-28T09:28:17.653Z,93758.48
2019-02-28T09:30:46.462Z,93763.69
2019-02-28T09:33:15.294Z,93761.34
2019-02-28T09:35:46.269Z,93761.56
2019-02-28T09:38:20.401Z,93744.69
2019-02-28T09:43:28.758Z,93754.28
2019-02-28T09:45:56.944Z,93752.97
2019-02-28T09:48:24.548Z,93747.23
2019-02-28T09:50:57.744Z,93755.52
2019-02-28T09:53:29.979Z,93757.30
2019-02-28T09:55:58.664Z,93760.54
2019-02-28T09:58:29.303Z,93750.69
2019-02-28T10:04:10.420Z,93742.91
2019-02-28T10:06:38.667Z,93757.39
2019-02-28T10:09:08.819Z,93755.25
2019-02-28T10:11:37.417Z,93747.77
2019-02-28T10:14:05.850Z,93749.44
2019-02-28T10:16:53.391Z,93746.19
2019-02-28T10:19:45.744Z,93747.31
2019-02-28T10:22:17.879Z,93742.67
2019-02-28T10:24:46.229Z,93749.31
2019-02-28T10:27:14.657Z,93753.11
2019-02-28T10:29:43.137Z,93743.89
2019-02-28T10:32:11.720Z,93746.42
2019-02-28T10:34:39.843Z,93735.53
2019-02-28T10:37:08.724Z,93737.94
2019-02-28T10:39:40.325Z,93725.02
2019-02-28T10:42:14.613Z,93725.38
2019-02-28T10:44:42.973Z,93723.95
2019-02-28T10:47:11.546Z,93726.91
2019-02-28T10:49:39.892Z,93722.68
2019-02-28T10:52:30.422Z,93721.63
2019-02-28T10:55:07.515Z,93729.86
2019-02-28T10:57:54.535Z,93718.30
2019-02-28T11:01:07.765Z,93720.37
2019-02-28T11:04:00.270Z,93729.31
2019-02-28T11:06:39.252Z,93729.31
2019-02-28T11:12:09.399Z,93721.64
2019-02-28T11:14:38.794Z,93721.64
2019-02-28T11:17:13.508Z,93716.29
2019-02-28T11:19:52.019Z,93723.55
2019-02-28T11:22:44.472Z,93719.77
2019-02-28T11:25:13.237Z,93719.77
2019-02-28T11:27:42.145Z,93726.52
2019-02-28T11:30:53.221Z,93722.70
2019-02-28T11:33:22.857Z,93713.50
2019-02-28T11:35:51.220Z,93715.16
2019-02-28T11:38:21.503Z,93715.27
2019-02-28T11:40:57.487Z,93710.46
2019-02-28T11:43:53.725Z,93713.23
2019-02-28T11:46:22.760Z,93712.57
2019-02-28T11:48:53.974Z,93706.43
2019-02-28T11:51:22.333Z,93701.80
2019-02-28T11:54:12.295Z,93706.68
2019-02-28T11:56:46.185Z,93701.13
2019-02-28T11:59:33.164Z,93698.89
2019-02-28T12:02:03.931Z,93695.45
2019-02-28T12:04:33.773Z,93689.90
2019-02-28T12:07:03.200Z,93692.08
2019-02-28T12:09:51.506Z,93683.38
2019-02-28T12:12:26.688Z,93685.20
2019-02-28T12:14:55.394Z,93688.72
2019-02-28T12:17:25.530Z,93682.91
2019-02-28T12:19:54.426Z,93682.95
2019-02-28T12:25:33.003Z,93679.63
2019-02-28T12:30:41.998Z,93676.05
2019-02-28T12:33:10.594Z,93686.89
2019-02-28T12:35:40.486Z,93676.16
2019-02-28T12:38:15.145Z,93658.66
2019-02-28T12:40:45.659Z,93657.19
2019-02-28T12:43:13.500Z,93653.30
2019-02-28T12:46:22.195Z,93654.88
2019-02-28T12:48:53.208Z,93653.77
2019-02-28T12:51:36.568Z,93656.02
2019-02-28T12:54:04.014Z,93667.26
2019-02-28T12:56:31.968Z,93655.46
2019-02-28T12:59:00.453Z,93644.84
2019-02-28T13:01:29.125Z,93653.08
2019-02-28T13:04:00.649Z,93655.97
2019-02-28T13:06:33.188Z,93643.00
2019-02-28T13:09:01.194Z,93643.70
2019-02-28T13:14:30.522Z,93638.30
2019-02-28T13:16:58.830Z,93642.94
2019-02-28T13:19:26.958Z,93630.24
2019-02-28T13:21:55.712Z,93627.77
2019-02-28T13:24:24.252Z,93625.78
2019-02-28T13:26:53.046Z,93617.50
2019-02-28T13:29:22.307Z,93620.34
2019-02-28T13:31:50.313Z,93619.03
2019-02-28T13:34:19.153Z,93623.13
2019-02-28T13:36:47.552Z,93611.72
2019-02-28T13:39:15.827Z,93612.61
2019-02-28T13:41:44.492Z,93614.02
2019-02-28T13:44:12.548Z,93617.62
2019-02-28T13:46:40.893Z,93602.86
2019-02-28T13:49:12.073Z,93602.86
2019-02-28T13:51:46.746Z,93612.92
2019-02-28T13:54:34.465Z,93601.81
2019-02-28T13:57:08.101Z,93601.81
2019-02-28T13:59:40.359Z,93584.88
2019-02-28T14:02:09.037Z,93584.88
2019-02-28T14:04:37.830Z,93596.76
2019-02-28T14:07:07.721Z,93599.66
2019-02-28T14:09:36.252Z,93596.81
2019-02-28T14:12:04.635Z,93585.97
2019-02-28T14:14:33.016Z,93587.73
2019-02-28T14:17:02.044Z,93587.54
2019-02-28T14:19:30.652Z,93593.22
2019-02-28T14:21:59.274Z,93593.57
2019-02-28T14:24:30.847Z,93598.67
2019-02-28T14:26:57.920Z,93601.55
2019-02-28T14:29:48.258Z,93593.86
2019-02-28T14:32:25.497Z,93593.86
2019-02-28T14:34:57.318Z,93590.56
2019-02-28T14:37:25.010Z,93582.59
2019-02-28T14:39:53.388Z,93578.95
2019-02-28T14:42:22.126Z,93591.80
2019-02-28T14:44:50.790Z,93564.18
2019-02-28T14:47:18.729Z,93573.63
2019-02-28T14:49:47.475Z,93568.70
2019-02-28T14:52:15.824Z,93567.58
2019-02-28T14:54:43.401Z,93564.11
2019-02-28T14:57:13.438Z,93570.88
2019-02-28T14:59:48.853Z,93560.17
2019-02-28T15:05:38.533Z,93552.77
2019-02-28T15:08:06.974Z,93541.06
2019-02-28T15:10:55.739Z,93548.98
2019-02-28T15:13:24.364Z,93540.67
2019-02-28T15:15:54.323Z,93534.34
2019-02-28T15:18:30.031Z,93530.28
2019-02-28T15:21:18.989Z,93535.69
2019-02-28T15:23:47.303Z,93526.40
2019-02-28T15:26:15.928Z,93527.70
2019-02-28T15:28:45.489Z,93532.15
2019-02-28T15:34:30.215Z,93532.07
2019-02-28T15:37:07.035Z,93542.84
2019-02-28T15:39:54.615Z,93549.44
2019-02-28T15:42:22.642Z,93546.73
2019-02-28T15:44:51.995Z,93537.33
2019-02-28T15:47:23.236Z,93534.84
2019-02-28T15:49:56.679Z,93548.69
2019-02-28T15:58:28.356Z,93525.73
2019-02-28T16:00:57.509Z,93532.16
2019-02-28T16:03:33.481Z,93538.83
2019-02-28T16:06:01.739Z,93530.98
2019-02-28T16:08:30.580Z,93537.10
2019-02-28T16:10:59.581Z,93533.84
2019-02-28T16:13:39.925Z,93521.44
2019-02-28T16:16:08.751Z,93524.11
2019-02-28T16:18:37.550Z,93519.86
2019-02-28T16:21:09.899Z,93522.20
2019-02-28T16:23:37.946Z,93520.92
2019-02-28T16:26:06.551Z,93525.32
2019-02-28T16:28:34.226Z,93530.20
2019-02-28T16:31:03.224Z,93540.97
2019-02-28T16:33:43.184Z,93540.23
2019-02-28T16:36:11.551Z,93538.68
2019-02-28T16:38:42.424Z,93556.58
2019-02-28T16:41:17.125Z,93552.34
2019-02-28T16:43:45.392Z,93544.58
2019-02-28T16:46:24.881Z,93542.98
2019-02-28T16:48:53.627Z,93547.72
2019-02-28T16:51:22.290Z,93548.95
2019-02-28T16:53:50.668Z,93553.59
2019-02-28T16:56:59.678Z,93562.47
2019-02-28T16:59:28.434Z,93564.11
2019-02-28T17:04:54.837Z,93573.94
2019-02-28T17:07:22.479Z,93576.42
2019-02-28T17:09:51.293Z,93577.92
2019-02-28T17:12:54.072Z,93578.20
2019-02-28T17:18:13.098Z,93585.06
2019-02-28T17:20:42.069Z,93589.37
2019-02-28T17:23:11.800Z,93589.37
2019-02-28T17:25:40.238Z,93596.82
2019-02-28T17:31:23.557Z,93599.81
2019-02-28T17:33:51.864Z,93602.41
2019-02-28T17:36:20.624Z,93608.66
2019-02-28T17:38:59.998Z,93609.23
2019-02-28T17:41:28.382Z,93616.22
2019-02-28T17:44:37.546Z,93621.20
2019-02-28T17:47:55.819Z,93619.47
2019-02-28T17:51:11.050Z,93618.23
2019-02-28T17:54:11.034Z,93630.88
2019-02-28T17:56:51.824Z,93628.02
2019-02-28T17:59:32.578Z,93633.52
2019-02-28T18:02:39.376Z,93634.27
2019-02-28T18:05:36.480Z,93631.91
2019-02-28T18:08:37.753Z,93636.14
2019-02-28T18:11:50.728Z,93630.04
2019-02-28T18:14:42.572Z,93624.23
2019-02-28T18:17:49.311Z,93629.91
2019-02-28T18:20:29.891Z,93622.70
2019-02-28T18:23:06.327Z,93630.13
2019-02-28T18:26:15.513Z,93628.73
2019-02-28T18:29:22.223Z,93634.23
2019-02-28T18:31:53.907Z,93636.20
2019-02-28T18:34:24.135Z,93633.58
2019-02-28T18:36:52.959Z,93630.53
2019-02-28T18:39:21.395Z,93629.52
2019-02-28T18:41:50.783Z,93644.61
2019-02-28T18:44:26.933Z,93638.19
2019-02-28T18:46:55.592Z,93640.12
2019-02-28T18:49:26.685Z,93643.67
2019-02-28T18:52:07.213Z,93646.69
2019-02-28T18:54:34.806Z,93649.63
2019-02-28T18:57:02.809Z,93654.67
2019-02-28T18:59:31.320Z,93648.86
2019-02-28T19:01:59.240Z,93642.73
2019-02-28T19:04:28.563Z,93646.19
2019-02-28T19:06:57.056Z,93640.10
2019-02-28T19:09:25.973Z,93646.66
2019-02-28T19:11:55.181Z,93654.45
2019-02-28T19:14:46.920Z,93658.95
2019-02-28T19:17:15.270Z,93670.66
2019-02-28T19:19:43.708Z,93682.04
2019-02-28T19:22:17.001Z,93671.58
2019-02-28T19:24:45.688Z,93672.55
2019-02-28T19:27:13.931Z,93675.11
2019-02-28T19:29:41.921Z,93675.03
2019-02-28T19:32:09.933Z,93672.81
2019-02-28T19:34:38.697Z,93678.69
2019-02-28T19:37:07.034Z,93682.59
2019-02-28T19:39:35.789Z,93690.75
2019-02-28T19:42:04.233Z,93693.06
2019-02-28T19:44:32.197Z,93697.45
2019-02-28T19:47:01.003Z,93696.71
2019-02-28T19:49:29.339Z,93690.76
2019-02-28T19:51:56.982Z,93697.00
2019-02-28T19:54:24.973Z,93702.17
2019-02-28T19:56:53.316Z,93702.30
2019-02-28T19:59:40.380Z,93703.00
2019-02-28T20:02:08.895Z,93699.31
2019-02-28T20:04:37.591Z,93701.13
2019-02-28T20:07:06.014Z,93700.72
2019-02-28T20:09:56.153Z,93709.89
2019-02-28T20:12:24.856Z,93712.53
2019-02-28T20:14:53.886Z,93711.52
2019-02-28T20:17:23.201Z,93706.14
2019-02-28T20:23:11.206Z,93699.17
2019-02-28T20:25:39.421Z,93700.66
2019-02-28T20:28:09.196Z,93714.28
2019-02-28T20:30:38.298Z,93703.58
2019-02-28T20:33:06.457Z,93704.83
2019-02-28T20:35:34.700Z,93711.61
2019-02-28T20:38:03.024Z,93710.33
2019-02-28T20:40:50.430Z,93717.65
2019-02-28T20:43:19.962Z,93717.29
2019-02-28T20:45:48.942Z,93715.35
2019-02-28T20:48:18.335Z,93714.73
2019-02-28T20:51:06.166Z,93719.91
2019-02-28T20:53:35.177Z,93710.57
2019-02-28T20:56:03.954Z,93706.82
2019-02-28T20:58:32.278Z,93715.59
2019-02-28T21:01:01.165Z,93717.61
2019-02-28T21:03:30.003Z,93716.06
2019-02-28T21:05:57.896Z,93716.06
2019-02-28T21:08:26.774Z,93711.53
2019-02-28T21:10:55.419Z,93705.80
2019-02-28T21:13:24.214Z,93692.47
2019-02-28T21:15:52.167Z,93696.75
2019-02-28T21:18:20.621Z,93701.12
2019-02-28T21:20:48.668Z,93695.53
2019-02-28T21:23:16.678Z,93694.26
2019-02-28T21:25:45.410Z,93698.92
2019-02-28T21:28:13.895Z,93697.92
2019-02-28T21:30:42.349Z,93694.47
2019-02-28T21:33:10.985Z,93687.19
2019-02-28T21:35:39.770Z,93687.19
2019-02-28T21:38:08.118Z,93682.67
2019-02-28T21:40:36.525Z,93678.77
2019-02-28T21:43:23.855Z,93668.19
2019-02-28T21:45:52.926Z,93666.97
2019-02-28T21:48:21.241Z,93667.00
2019-02-28T21:50:50.433Z,93657.72
2019-02-28T21:53:20.255Z,93656.00
2019-02-28T21:56:09.102Z,93658.50
2019-02-28T22:01:58.586Z,93656.69
2019-02-28T22:04:27.482Z,93652.09
2019-02-28T22:06:55.703Z,93648.56
2019-02-28T22:09:23.557Z,93643.43
2019-02-28T22:11:52.165Z,93636.93
2019-02-28T22:14:19.718Z,93640.42
2019-02-28T22:16:48.268Z,93635.32
2019-02-28T22:19:17.297Z,93638.98
2019-02-28T22:21:45.293Z,93633.53
2019-02-28T22:24:14.371Z,93625.66
2019-02-28T22:26:43.606Z,93624.53
2019-02-28T22:29:31.265Z,93619.05
2019-02-28T22:32:13.585Z,93610.55
2019-02-28T22:34:53.191Z,93613.86
2019-02-28T22:37:20.777Z,93612.23
2019-02-28T22:39:49.364Z,93613.48
2019-02-28T22:42:22.192Z,93612.39
2019-02-28T22:44:57.803Z,93618.30
2019-02-28T22:47:25.306Z,93623.55
2019-02-28T22:49:53.655Z,93617.48
2019-02-28T22:52:21.989Z,93618.84
2019-02-28T22:54:50.342Z,93615.66
2019-02-28T22:57:18.710Z,93614.76
2019-02-28T22:59:47.406Z,93607.13
2019-02-28T23:02:16.096Z,93608.48
2019-02-28T23:04:44.852Z,93607.95
2019-02-28T23:07:13.164Z,93599.08
2019-02-28T23:09:41.828Z,93594.42
2019-02-28T23:12:10.536Z,93598.09
2019-02-28T23:14:40.803Z,93590.83
2019-02-28T23:17:09.149Z,93587.20
2019-02-28T23:19:37.438Z,93582.57
2019-02-28T23:22:27.045Z,93581.39
2019-02-28T23:24:55.731Z,93576.89
2019-02-28T23:27:23.970Z,93577.00
2019-02-28T23:30:14.117Z,93577.69
2019-02-28T23:32:55.916Z,93574.43
2019-02-28T23:35:44.809Z,93569.90
2019-02-28T23:38:13.101Z,93556.73
2019-02-28T23:40:41.462Z,93566.61
2019-02-28T23:43:10.055Z,93553.14
2019-02-28T23:45:38.898Z,93557.74
2019-02-28T23:48:07.465Z,93554.25
2019-02-28T23:50:36.327Z,93552.83
2019-02-28T23:53:05.034Z,93554.97
2019-02-28T23:55:33.000Z,93556.38
2019-02-28T23:58:01.754Z,93544.67
